Evans, Illinois
Current Conditions -  °F | °C
As of 2:15 PM on Monday 24 Nov 2014 (Local Time) from KC75 Reporting Station
Overcast Overcast  
Wind Chill: 18°   Ceiling: 1700
Heat Index: 29°   Visibility: 7mi
Dew Point: 25°   Wind: 16mph
Humidity: 83%   Direction: 260°W
Pressure: 29.6"   Gusts: 31mph
Location:  41.0632°N, 89.0208°W
Report Text: KC75 242015Z AUTO 26014G27KT 7SM BKN017 OVC025 M01/M04 A2960 RMK AO2 T10151041
Loading
Personal Weather Stations






























Interactive Weather Map New forecast layout! Learn more

10-Day Weather Forecast

Advertisements
Track Severe Weather on mobile